Главная страница
METAR-TAF:

METAR-TAF

Аэропорты :

Тунис-Карфаген

Тунис, Тунис

широта: 36-50N, долгота: 010-14E, высота над уровнем моря: 3 м

Текущие метеонаблюдения

Эта сводка был подготовлена 22 минут назад, в 21:30 UTC
Ветер 2 Узел от юго-юго-восточный
Температура 20°C
Влажность 83%
Давление 1008 hPa
Видимость 10 км и более
небольшая облачность на высоте 2300 фута

METAR: DTTA 182130Z 15002KT 9999 FEW023 20/17 Q1008 NOSIG

Время: 22:52 (21:52 UTC)

Прогноз

Эта сводка был подготовлена 4 часа и 52 минут назад, в 17:00 UTC
Прогноз действительный с 18-го 18 UTC до 19-го 18 UTC
Ветер 4 Узел от восточно-юго-восточный
Видимость 10 км и более
небольшая облачность на высоте 2300 фута
Вероятность 30%
С 19-го 02 UTC до 19-го 07 UTC
Видимость: 4000 м
дымка

TAF: DTTA 181700Z 1818/1918 12004KT 9999 FEW023 PROB30 1902/1907 4000 BR

Метеонаблюдения и прогнозы для более 4000 аэропортов (сводки METAR и TAF).

Имеющиеся станции представлены на карте желтыми и красными точками.

Чтобы увидеть название станции, наведите на нее мышь.

Затем щелкните, чтобы увидеть метеонаблюдения и метеопрогнозы.

Управление картой: чтобы увеличить масштаб, щелкните зеленые кнопки с черным крестиком; чтобы уменьшить масштаб, щелкните зеленую кнопку с тире; для просмотра соседних карт щелкайте зеленые стрелки.


METAR-TAF: